sensor_id;sensor_type;location;lat;lon;timestamp;P1;durP1;ratioP1;P2;durP2;ratioP2
2458;SDS011;1241;50.920;6.936;2022-10-15T00:01:13;5.67;;;4.60;;
2458;SDS011;1241;50.920;6.936;2022-10-15T00:03:41;4.33;;;3.93;;
2458;SDS011;1241;50.920;6.936;2022-10-15T00:06:15;4.90;;;4.50;;
2458;SDS011;1241;50.920;6.936;2022-10-15T00:08:45;6.23;;;5.20;;
2458;SDS011;1241;50.920;6.936;2022-10-15T00:11:13;6.00;;;4.70;;
2458;SDS011;1241;50.920;6.936;2022-10-15T00:13:41;6.13;;;4.50;;
2458;SDS011;1241;50.920;6.936;2022-10-15T00:16:08;5.27;;;4.80;;
2458;SDS011;1241;50.920;6.936;2022-10-15T00:18:37;4.80;;;4.30;;
2458;SDS011;1241;50.920;6.936;2022-10-15T00:21:10;5.70;;;5.30;;
2458;SDS011;1241;50.920;6.936;2022-10-15T00:23:37;5.20;;;4.70;;
2458;SDS011;1241;50.920;6.936;2022-10-15T00:26:07;5.77;;;4.50;;
2458;SDS011;1241;50.920;6.936;2022-10-15T00:28:39;6.93;;;4.47;;
2458;SDS011;1241;50.920;6.936;2022-10-15T00:31:08;5.90;;;5.00;;
2458;SDS011;1241;50.920;6.936;2022-10-15T00:33:38;5.00;;;4.60;;
2458;SDS011;1241;50.920;6.936;2022-10-15T00:36:09;4.50;;;4.20;;
2458;SDS011;1241;50.920;6.936;2022-10-15T00:38:41;4.60;;;4.20;;
2458;SDS011;1241;50.920;6.936;2022-10-15T00:41:09;4.40;;;3.77;;
2458;SDS011;1241;50.920;6.936;2022-10-15T00:46:17;4.40;;;4.00;;
2458;SDS011;1241;50.920;6.936;2022-10-15T00:48:53;3.90;;;3.60;;
2458;SDS011;1241;50.920;6.936;2022-10-15T00:51:22;3.70;;;3.40;;
2458;SDS011;1241;50.920;6.936;2022-10-15T00:53:53;4.10;;;3.80;;
2458;SDS011;1241;50.920;6.936;2022-10-15T00:56:20;3.73;;;3.43;;
2458;SDS011;1241;50.920;6.936;2022-10-15T00:58:48;3.70;;;3.40;;
2458;SDS011;1241;50.920;6.936;2022-10-15T01:01:16;3.93;;;3.63;;
2458;SDS011;1241;50.920;6.936;2022-10-15T01:03:42;4.00;;;3.60;;
2458;SDS011;1241;50.920;6.936;2022-10-15T01:06:08;3.93;;;3.63;;
2458;SDS011;1241;50.920;6.936;2022-10-15T01:08:33;4.23;;;3.83;;
2458;SDS011;1241;50.920;6.936;2022-10-15T01:22:04;6.90;;;4.50;;
2458;SDS011;1241;50.920;6.936;2022-10-15T01:24:41;4.47;;;4.13;;
2458;SDS011;1241;50.920;6.936;2022-10-15T01:43:59;7.53;;;5.70;;
2458;SDS011;1241;50.920;6.936;2022-10-15T01:46:56;7.03;;;5.70;;
2458;SDS011;1241;50.920;6.936;2022-10-15T01:49:33;6.30;;;5.70;;
2458;SDS011;1241;50.920;6.936;2022-10-15T01:52:03;7.38;;;6.68;;
2458;SDS011;1241;50.920;6.936;2022-10-15T01:54:33;6.03;;;5.53;;
2458;SDS011;1241;50.920;6.936;2022-10-15T01:57:00;6.80;;;6.07;;
2458;SDS011;1241;50.920;6.936;2022-10-15T01:59:28;7.00;;;6.38;;
2458;SDS011;1241;50.920;6.936;2022-10-15T02:01:56;6.70;;;6.10;;
2458;SDS011;1241;50.920;6.936;2022-10-15T02:04:26;8.48;;;7.68;;
2458;SDS011;1241;50.920;6.936;2022-10-15T02:15:02;7.38;;;6.68;;
2458;SDS011;1241;50.920;6.936;2022-10-15T02:17:44;7.57;;;6.87;;
2458;SDS011;1241;50.920;6.936;2022-10-15T02:20:50;8.43;;;7.63;;
2458;SDS011;1241;50.920;6.936;2022-10-15T02:23:34;7.57;;;6.80;;
2458;SDS011;1241;50.920;6.936;2022-10-15T02:26:09;7.53;;;6.77;;
2458;SDS011;1241;50.920;6.936;2022-10-15T02:28:38;8.30;;;7.50;;
2458;SDS011;1241;50.920;6.936;2022-10-15T02:31:07;7.50;;;6.80;;
2458;SDS011;1241;50.920;6.936;2022-10-15T02:33:36;7.73;;;6.23;;
2458;SDS011;1241;50.920;6.936;2022-10-15T02:36:03;8.63;;;7.65;;
2458;SDS011;1241;50.920;6.936;2022-10-15T02:38:32;8.68;;;7.75;;
2458;SDS011;1241;50.920;6.936;2022-10-15T02:41:00;8.10;;;7.30;;
2458;SDS011;1241;50.920;6.936;2022-10-15T02:43:26;7.60;;;6.80;;
2458;SDS011;1241;50.920;6.936;2022-10-15T02:45:52;7.33;;;6.63;;
2458;SDS011;1241;50.920;6.936;2022-10-15T02:48:19;8.53;;;7.70;;
2458;SDS011;1241;50.920;6.936;2022-10-15T02:50:46;8.03;;;7.23;;
2458;SDS011;1241;50.920;6.936;2022-10-15T02:53:12;9.50;;;7.93;;
2458;SDS011;1241;50.920;6.936;2022-10-15T02:55:40;8.27;;;6.78;;
2458;SDS011;1241;50.920;6.936;2022-10-15T02:58:06;8.10;;;7.30;;
2458;SDS011;1241;50.920;6.936;2022-10-15T03:00:32;8.30;;;7.50;;
2458;SDS011;1241;50.920;6.936;2022-10-15T03:02:58;8.07;;;7.00;;
2458;SDS011;1241;50.920;6.936;2022-10-15T03:05:24;7.30;;;6.60;;
2458;SDS011;1241;50.920;6.936;2022-10-15T03:07:50;8.83;;;7.30;;
2458;SDS011;1241;50.920;6.936;2022-10-15T03:10:17;8.17;;;7.37;;
2458;SDS011;1241;50.920;6.936;2022-10-15T03:12:43;7.80;;;6.83;;
2458;SDS011;1241;50.920;6.936;2022-10-15T03:15:10;7.80;;;7.00;;
2458;SDS011;1241;50.920;6.936;2022-10-15T03:17:36;7.97;;;6.53;;
2458;SDS011;1241;50.920;6.936;2022-10-15T03:20:02;8.43;;;5.93;;
2458;SDS011;1241;50.920;6.936;2022-10-15T03:22:32;6.90;;;6.40;;
2458;SDS011;1241;50.920;6.936;2022-10-15T03:24:58;6.50;;;5.30;;
2458;SDS011;1241;50.920;6.936;2022-10-15T03:27:26;8.03;;;6.03;;
2458;SDS011;1241;50.920;6.936;2022-10-15T03:29:52;8.32;;;6.50;;
2458;SDS011;1241;50.920;6.936;2022-10-15T03:32:21;7.50;;;6.80;;
2458;SDS011;1241;50.920;6.936;2022-10-15T03:34:46;6.57;;;5.90;;
2458;SDS011;1241;50.920;6.936;2022-10-15T03:37:15;7.33;;;6.53;;
2458;SDS011;1241;50.920;6.936;2022-10-15T03:39:41;8.23;;;6.30;;
2458;SDS011;1241;50.920;6.936;2022-10-15T03:42:08;7.90;;;6.60;;
2458;SDS011;1241;50.920;6.936;2022-10-15T03:44:38;9.00;;;6.07;;
2458;SDS011;1241;50.920;6.936;2022-10-15T03:47:09;7.90;;;6.30;;
2458;SDS011;1241;50.920;6.936;2022-10-15T03:49:42;6.95;;;5.97;;
2458;SDS011;1241;50.920;6.936;2022-10-15T03:52:07;6.67;;;6.07;;
2458;SDS011;1241;50.920;6.936;2022-10-15T03:54:33;6.10;;;5.50;;
2458;SDS011;1241;50.920;6.936;2022-10-15T03:56:59;7.57;;;6.87;;
2458;SDS011;1241;50.920;6.936;2022-10-15T03:59:32;6.80;;;5.43;;
2458;SDS011;1241;50.920;6.936;2022-10-15T04:02:00;7.27;;;5.97;;
2458;SDS011;1241;50.920;6.936;2022-10-15T04:04:27;6.27;;;5.67;;
2458;SDS011;1241;50.920;6.936;2022-10-15T04:06:53;6.43;;;5.80;;
2458;SDS011;1241;50.920;6.936;2022-10-15T04:09:19;5.40;;;4.90;;
2458;SDS011;1241;50.920;6.936;2022-10-15T04:11:45;7.37;;;6.30;;
2458;SDS011;1241;50.920;6.936;2022-10-15T04:14:11;6.67;;;6.07;;
2458;SDS011;1241;50.920;6.936;2022-10-15T04:16:37;8.03;;;7.23;;
2458;SDS011;1241;50.920;6.936;2022-10-15T04:19:17;7.27;;;6.60;;
2458;SDS011;1241;50.920;6.936;2022-10-15T04:21:51;7.43;;;6.70;;
2458;SDS011;1241;50.920;6.936;2022-10-15T04:24:37;6.60;;;6.00;;
2458;SDS011;1241;50.920;6.936;2022-10-15T04:27:03;7.20;;;6.57;;
2458;SDS011;1241;50.920;6.936;2022-10-15T04:29:29;6.93;;;6.27;;
2458;SDS011;1241;50.920;6.936;2022-10-15T04:32:09;6.63;;;5.93;;
2458;SDS011;1241;50.920;6.936;2022-10-15T04:34:38;6.93;;;5.55;;
2458;SDS011;1241;50.920;6.936;2022-10-15T04:37:04;5.50;;;5.00;;
2458;SDS011;1241;50.920;6.936;2022-10-15T04:39:31;7.60;;;6.80;;
2458;SDS011;1241;50.920;6.936;2022-10-15T04:41:57;7.03;;;6.43;;
2458;SDS011;1241;50.920;6.936;2022-10-15T04:44:25;6.13;;;5.53;;
2458;SDS011;1241;50.920;6.936;2022-10-15T04:46:55;6.93;;;6.30;;
2458;SDS011;1241;50.920;6.936;2022-10-15T04:49:38;7.57;;;6.83;;
2458;SDS011;1241;50.920;6.936;2022-10-15T04:52:14;9.95;;;7.55;;
2458;SDS011;1241;50.920;6.936;2022-10-15T04:54:55;8.73;;;7.00;;
2458;SDS011;1241;50.920;6.936;2022-10-15T04:57:22;6.80;;;6.00;;
2458;SDS011;1241;50.920;6.936;2022-10-15T04:59:48;7.37;;;6.63;;
2458;SDS011;1241;50.920;6.936;2022-10-15T05:02:40;8.07;;;7.22;;
2458;SDS011;1241;50.920;6.936;2022-10-15T05:05:18;8.47;;;7.73;;
2458;SDS011;1241;50.920;6.936;2022-10-15T05:07:50;9.40;;;8.30;;
2458;SDS011;1241;50.920;6.936;2022-10-15T05:10:15;8.30;;;7.60;;
2458;SDS011;1241;50.920;6.936;2022-10-15T05:12:41;8.70;;;7.53;;
2458;SDS011;1241;50.920;6.936;2022-10-15T05:15:07;8.23;;;7.43;;
2458;SDS011;1241;50.920;6.936;2022-10-15T05:17:33;7.50;;;6.70;;
2458;SDS011;1241;50.920;6.936;2022-10-15T05:19:59;7.77;;;6.73;;
2458;SDS011;1241;50.920;6.936;2022-10-15T05:22:26;8.10;;;7.30;;
2458;SDS011;1241;50.920;6.936;2022-10-15T05:24:56;9.40;;;7.77;;
2458;SDS011;1241;50.920;6.936;2022-10-15T05:27:27;8.10;;;7.40;;
2458;SDS011;1241;50.920;6.936;2022-10-15T05:29:53;7.50;;;6.83;;
2458;SDS011;1241;50.920;6.936;2022-10-15T05:32:19;7.30;;;6.70;;
2458;SDS011;1241;50.920;6.936;2022-10-15T05:34:44;7.87;;;7.07;;
2458;SDS011;1241;50.920;6.936;2022-10-15T05:37:13;8.32;;;6.70;;
2458;SDS011;1241;50.920;6.936;2022-10-15T05:39:40;10.25;;;7.40;;
2458;SDS011;1241;50.920;6.936;2022-10-15T05:42:08;7.93;;;7.17;;
2458;SDS011;1241;50.920;6.936;2022-10-15T05:44:48;7.30;;;6.60;;
2458;SDS011;1241;50.920;6.936;2022-10-15T05:47:13;8.87;;;8.00;;
2458;SDS011;1241;50.920;6.936;2022-10-15T05:49:39;7.20;;;6.53;;
2458;SDS011;1241;50.920;6.936;2022-10-15T05:52:13;7.80;;;7.00;;
2458;SDS011;1241;50.920;6.936;2022-10-15T05:54:58;8.43;;;7.40;;
2458;SDS011;1241;50.920;6.936;2022-10-15T05:57:24;6.50;;;5.67;;
2458;SDS011;1241;50.920;6.936;2022-10-15T05:59:49;7.27;;;6.30;;
2458;SDS011;1241;50.920;6.936;2022-10-15T06:02:15;6.37;;;5.30;;
2458;SDS011;1241;50.920;6.936;2022-10-15T06:04:41;6.00;;;5.50;;
2458;SDS011;1241;50.920;6.936;2022-10-15T06:07:07;8.02;;;5.95;;
2458;SDS011;1241;50.920;6.936;2022-10-15T06:09:33;5.40;;;4.90;;
2458;SDS011;1241;50.920;6.936;2022-10-15T06:11:58;7.13;;;6.50;;
2458;SDS011;1241;50.920;6.936;2022-10-15T06:14:24;6.00;;;5.50;;
2458;SDS011;1241;50.920;6.936;2022-10-15T06:16:50;6.90;;;6.20;;
2458;SDS011;1241;50.920;6.936;2022-10-15T06:19:19;5.65;;;5.10;;
2458;SDS011;1241;50.920;6.936;2022-10-15T06:21:45;5.60;;;5.10;;
2458;SDS011;1241;50.920;6.936;2022-10-15T06:24:10;5.77;;;5.27;;
2458;SDS011;1241;50.920;6.936;2022-10-15T06:26:36;5.80;;;5.00;;
2458;SDS011;1241;50.920;6.936;2022-10-15T06:29:02;7.10;;;5.40;;
2458;SDS011;1241;50.920;6.936;2022-10-15T06:31:27;5.17;;;4.77;;
2458;SDS011;1241;50.920;6.936;2022-10-15T06:33:53;6.07;;;5.33;;
2458;SDS011;1241;50.920;6.936;2022-10-15T06:36:19;7.07;;;6.10;;
2458;SDS011;1241;50.920;6.936;2022-10-15T06:38:45;6.13;;;5.55;;
2458;SDS011;1241;50.920;6.936;2022-10-15T06:41:11;6.33;;;5.37;;
2458;SDS011;1241;50.920;6.936;2022-10-15T06:43:37;7.90;;;5.87;;
2458;SDS011;1241;50.920;6.936;2022-10-15T06:46:04;7.47;;;6.77;;
2458;SDS011;1241;50.920;6.936;2022-10-15T06:48:30;8.40;;;6.03;;
2458;SDS011;1241;50.920;6.936;2022-10-15T06:50:57;7.32;;;6.70;;
2458;SDS011;1241;50.920;6.936;2022-10-15T06:53:25;8.13;;;5.85;;
2458;SDS011;1241;50.920;6.936;2022-10-15T06:55:54;8.20;;;5.87;;
2458;SDS011;1241;50.920;6.936;2022-10-15T06:58:24;6.53;;;5.63;;
2458;SDS011;1241;50.920;6.936;2022-10-15T07:00:50;5.93;;;4.57;;
2458;SDS011;1241;50.920;6.936;2022-10-15T07:03:16;6.13;;;5.53;;
2458;SDS011;1241;50.920;6.936;2022-10-15T07:05:41;8.00;;;7.30;;
2458;SDS011;1241;50.920;6.936;2022-10-15T07:08:07;7.97;;;5.63;;
2458;SDS011;1241;50.920;6.936;2022-10-15T07:10:33;8.60;;;7.70;;
2458;SDS011;1241;50.920;6.936;2022-10-15T07:12:59;6.23;;;4.63;;
2458;SDS011;1241;50.920;6.936;2022-10-15T07:15:25;4.53;;;3.97;;
2458;SDS011;1241;50.920;6.936;2022-10-15T07:17:52;5.70;;;4.60;;
2458;SDS011;1241;50.920;6.936;2022-10-15T07:20:25;4.20;;;3.80;;
2458;SDS011;1241;50.920;6.936;2022-10-15T07:22:56;4.00;;;3.47;;
2458;SDS011;1241;50.920;6.936;2022-10-15T07:25:27;4.73;;;4.33;;
2458;SDS011;1241;50.920;6.936;2022-10-15T07:27:53;3.27;;;2.97;;
2458;SDS011;1241;50.920;6.936;2022-10-15T07:30:21;5.20;;;4.07;;
2458;SDS011;1241;50.920;6.936;2022-10-15T07:32:49;3.70;;;3.10;;
2458;SDS011;1241;50.920;6.936;2022-10-15T07:35:15;4.07;;;3.33;;
2458;SDS011;1241;50.920;6.936;2022-10-15T07:37:41;3.67;;;3.40;;
2458;SDS011;1241;50.920;6.936;2022-10-15T07:40:06;3.67;;;3.37;;
2458;SDS011;1241;50.920;6.936;2022-10-15T07:42:33;3.50;;;3.20;;
2458;SDS011;1241;50.920;6.936;2022-10-15T07:44:59;37.37;;;14.10;;
2458;SDS011;1241;50.920;6.936;2022-10-15T07:47:24;4.40;;;3.67;;
2458;SDS011;1241;50.920;6.936;2022-10-15T07:49:50;5.47;;;4.57;;
2458;SDS011;1241;50.920;6.936;2022-10-15T07:52:16;4.70;;;3.63;;
2458;SDS011;1241;50.920;6.936;2022-10-15T07:54:41;3.43;;;3.13;;
2458;SDS011;1241;50.920;6.936;2022-10-15T07:57:07;3.97;;;3.60;;
2458;SDS011;1241;50.920;6.936;2022-10-15T07:59:33;3.10;;;2.90;;
2458;SDS011;1241;50.920;6.936;2022-10-15T08:01:59;3.37;;;3.00;;
2458;SDS011;1241;50.920;6.936;2022-10-15T08:04:25;4.60;;;4.20;;
2458;SDS011;1241;50.920;6.936;2022-10-15T08:06:51;4.10;;;3.70;;
2458;SDS011;1241;50.920;6.936;2022-10-15T08:09:17;3.60;;;3.30;;
2458;SDS011;1241;50.920;6.936;2022-10-15T08:11:42;3.47;;;3.00;;
2458;SDS011;1241;50.920;6.936;2022-10-15T08:14:10;3.13;;;2.93;;
2458;SDS011;1241;50.920;6.936;2022-10-15T08:16:36;2.97;;;2.60;;
2458;SDS011;1241;50.920;6.936;2022-10-15T08:19:02;3.10;;;2.90;;
2458;SDS011;1241;50.920;6.936;2022-10-15T08:21:28;4.27;;;3.30;;
2458;SDS011;1241;50.920;6.936;2022-10-15T08:23:53;3.50;;;2.40;;
2458;SDS011;1241;50.920;6.936;2022-10-15T08:26:28;2.47;;;2.33;;
2458;SDS011;1241;50.920;6.936;2022-10-15T08:28:54;3.27;;;2.97;;
2458;SDS011;1241;50.920;6.936;2022-10-15T08:31:20;3.90;;;2.63;;
2458;SDS011;1241;50.920;6.936;2022-10-15T08:33:46;2.70;;;2.23;;
2458;SDS011;1241;50.920;6.936;2022-10-15T08:36:12;3.53;;;3.17;;
2458;SDS011;1241;50.920;6.936;2022-10-15T08:38:38;2.37;;;2.27;;
2458;SDS011;1241;50.920;6.936;2022-10-15T08:44:54;2.90;;;2.37;;
2458;SDS011;1241;50.920;6.936;2022-10-15T08:47:35;2.40;;;2.20;;
2458;SDS011;1241;50.920;6.936;2022-10-15T08:50:12;2.17;;;2.00;;
2458;SDS011;1241;50.920;6.936;2022-10-15T08:52:42;2.83;;;2.63;;
2458;SDS011;1241;50.920;6.936;2022-10-15T08:55:10;3.77;;;2.50;;
2458;SDS011;1241;50.920;6.936;2022-10-15T09:05:31;2.53;;;2.33;;
2458;SDS011;1241;50.920;6.936;2022-10-15T09:10:35;3.07;;;2.77;;
2458;SDS011;1241;50.920;6.936;2022-10-15T09:13:59;3.10;;;2.90;;
2458;SDS011;1241;50.920;6.936;2022-10-15T09:18:51;2.57;;;2.37;;
2458;SDS011;1241;50.920;6.936;2022-10-15T09:21:21;4.03;;;2.37;;
2458;SDS011;1241;50.920;6.936;2022-10-15T09:23:50;3.10;;;2.63;;
2458;SDS011;1241;50.920;6.936;2022-10-15T09:26:19;2.80;;;2.60;;
2458;SDS011;1241;50.920;6.936;2022-10-15T09:31:45;2.93;;;2.73;;
2458;SDS011;1241;50.920;6.936;2022-10-15T09:34:30;2.20;;;2.10;;
2458;SDS011;1241;50.920;6.936;2022-10-15T09:43:04;1.97;;;1.80;;
2458;SDS011;1241;50.920;6.936;2022-10-15T09:45:31;1.80;;;1.70;;
2458;SDS011;1241;50.920;6.936;2022-10-15T09:47:58;2.77;;;2.23;;
2458;SDS011;1241;50.920;6.936;2022-10-15T09:50:25;1.70;;;1.60;;
2458;SDS011;1241;50.920;6.936;2022-10-15T09:55:48;2.63;;;2.50;;
2458;SDS011;1241;50.920;6.936;2022-10-15T10:01:29;2.03;;;1.93;;
2458;SDS011;1241;50.920;6.936;2022-10-15T10:04:13;1.37;;;1.27;;
2458;SDS011;1241;50.920;6.936;2022-10-15T10:06:52;1.93;;;1.80;;
2458;SDS011;1241;50.920;6.936;2022-10-15T10:09:35;3.40;;;1.60;;
2458;SDS011;1241;50.920;6.936;2022-10-15T10:12:06;2.73;;;2.33;;
2458;SDS011;1241;50.920;6.936;2022-10-15T10:14:43;1.70;;;1.60;;
2458;SDS011;1241;50.920;6.936;2022-10-15T10:17:19;1.80;;;1.70;;
2458;SDS011;1241;50.920;6.936;2022-10-15T10:30:37;3.70;;;1.80;;
2458;SDS011;1241;50.920;6.936;2022-10-15T10:33:18;1.90;;;1.80;;
2458;SDS011;1241;50.920;6.936;2022-10-15T10:35:53;1.40;;;1.30;;
2458;SDS011;1241;50.920;6.936;2022-10-15T10:40:54;1.80;;;1.70;;
2458;SDS011;1241;50.920;6.936;2022-10-15T10:43:28;2.47;;;1.60;;
2458;SDS011;1241;50.920;6.936;2022-10-15T10:46:01;2.30;;;1.63;;
2458;SDS011;1241;50.920;6.936;2022-10-15T10:48:39;1.73;;;1.50;;
2458;SDS011;1241;50.920;6.936;2022-10-15T10:53:49;2.50;;;1.60;;
2458;SDS011;1241;50.920;6.936;2022-10-15T10:56:37;1.80;;;1.23;;
2458;SDS011;1241;50.920;6.936;2022-10-15T11:02:12;1.63;;;1.53;;
2458;SDS011;1241;50.920;6.936;2022-10-15T11:07:49;1.30;;;1.20;;
2458;SDS011;1241;50.920;6.936;2022-10-15T11:11:11;1.67;;;1.23;;
2458;SDS011;1241;50.920;6.936;2022-10-15T11:13:26;0.90;;;0.90;;
2458;SDS011;1241;50.920;6.936;2022-10-15T11:16:16;2.60;;;1.40;;
2458;SDS011;1241;50.920;6.936;2022-10-15T11:29:52;0.93;;;0.93;;
2458;SDS011;1241;50.920;6.936;2022-10-15T11:35:30;0.90;;;0.90;;
2458;SDS011;1241;50.920;6.936;2022-10-15T11:38:26;0.80;;;0.80;;
2458;SDS011;1241;50.920;6.936;2022-10-15T11:41:15;1.27;;;1.10;;
2458;SDS011;1241;50.920;6.936;2022-10-15T11:57:43;1.30;;;1.30;;
2458;SDS011;1241;50.920;6.936;2022-10-15T12:00:18;0.87;;;0.80;;
2458;SDS011;1241;50.920;6.936;2022-10-15T12:02:54;1.00;;;0.90;;
2458;SDS011;1241;50.920;6.936;2022-10-15T12:05:28;1.20;;;1.10;;
2458;SDS011;1241;50.920;6.936;2022-10-15T12:07:59;0.83;;;0.83;;
2458;SDS011;1241;50.920;6.936;2022-10-15T12:18:42;1.53;;;1.23;;
2458;SDS011;1241;50.920;6.936;2022-10-15T12:30:26;1.03;;;0.87;;
2458;SDS011;1241;50.920;6.936;2022-10-15T12:35:04;1.00;;;0.83;;
2458;SDS011;1241;50.920;6.936;2022-10-15T12:37:42;1.30;;;1.20;;
2458;SDS011;1241;50.920;6.936;2022-10-15T12:45:36;1.10;;;1.00;;
2458;SDS011;1241;50.920;6.936;2022-10-15T12:50:33;0.80;;;0.70;;
2458;SDS011;1241;50.920;6.936;2022-10-15T12:56:10;1.43;;;1.33;;
2458;SDS011;1241;50.920;6.936;2022-10-15T12:59:00;0.93;;;0.80;;
2458;SDS011;1241;50.920;6.936;2022-10-15T13:01:28;0.60;;;0.60;;
2458;SDS011;1241;50.920;6.936;2022-10-15T13:04:14;2.10;;;1.90;;
2458;SDS011;1241;50.920;6.936;2022-10-15T13:06:40;1.13;;;1.07;;
2458;SDS011;1241;50.920;6.936;2022-10-15T13:16:42;1.13;;;0.97;;
2458;SDS011;1241;50.920;6.936;2022-10-15T13:19:20;0.87;;;0.87;;
2458;SDS011;1241;50.920;6.936;2022-10-15T13:21:55;1.13;;;1.13;;
2458;SDS011;1241;50.920;6.936;2022-10-15T13:24:27;0.97;;;0.90;;
2458;SDS011;1241;50.920;6.936;2022-10-15T13:27:31;0.80;;;0.80;;
2458;SDS011;1241;50.920;6.936;2022-10-15T13:30:05;1.53;;;0.90;;
2458;SDS011;1241;50.920;6.936;2022-10-15T13:32:46;0.80;;;0.80;;
2458;SDS011;1241;50.920;6.936;2022-10-15T13:35:20;1.27;;;1.17;;
2458;SDS011;1241;50.920;6.936;2022-10-15T13:37:50;3.77;;;2.37;;
2458;SDS011;1241;50.920;6.936;2022-10-15T13:40:20;1.07;;;1.07;;
2458;SDS011;1241;50.920;6.936;2022-10-15T13:45:23;0.80;;;0.80;;
2458;SDS011;1241;50.920;6.936;2022-10-15T13:47:50;3.03;;;0.80;;
2458;SDS011;1241;50.920;6.936;2022-10-15T13:50:19;1.20;;;1.10;;
2458;SDS011;1241;50.920;6.936;2022-10-15T13:52:48;1.60;;;1.20;;
2458;SDS011;1241;50.920;6.936;2022-10-15T13:55:25;1.50;;;1.40;;
2458;SDS011;1241;50.920;6.936;2022-10-15T13:57:57;1.93;;;1.37;;
2458;SDS011;1241;50.920;6.936;2022-10-15T14:00:27;1.40;;;1.30;;
2458;SDS011;1241;50.920;6.936;2022-10-15T14:03:06;1.57;;;1.47;;
2458;SDS011;1241;50.920;6.936;2022-10-15T14:05:41;1.50;;;1.37;;
2458;SDS011;1241;50.920;6.936;2022-10-15T14:08:16;0.70;;;0.70;;
2458;SDS011;1241;50.920;6.936;2022-10-15T14:10:47;0.93;;;0.93;;
2458;SDS011;1241;50.920;6.936;2022-10-15T14:13:13;0.63;;;0.63;;
2458;SDS011;1241;50.920;6.936;2022-10-15T14:18:06;1.37;;;1.37;;
2458;SDS011;1241;50.920;6.936;2022-10-15T14:20:33;1.70;;;1.60;;
2458;SDS011;1241;50.920;6.936;2022-10-15T14:22:59;2.80;;;2.40;;
2458;SDS011;1241;50.920;6.936;2022-10-15T14:25:24;2.07;;;1.90;;
2458;SDS011;1241;50.920;6.936;2022-10-15T14:27:51;1.80;;;1.70;;
2458;SDS011;1241;50.920;6.936;2022-10-15T14:30:28;2.30;;;2.10;;
2458;SDS011;1241;50.920;6.936;2022-10-15T14:32:56;7.07;;;5.27;;
2458;SDS011;1241;50.920;6.936;2022-10-15T14:35:32;5.00;;;3.20;;
2458;SDS011;1241;50.920;6.936;2022-10-15T14:38:01;4.93;;;3.17;;
2458;SDS011;1241;50.920;6.936;2022-10-15T14:40:27;5.57;;;3.50;;
2458;SDS011;1241;50.920;6.936;2022-10-15T14:45:39;4.47;;;2.50;;
2458;SDS011;1241;50.920;6.936;2022-10-15T14:48:27;1.50;;;1.40;;
2458;SDS011;1241;50.920;6.936;2022-10-15T14:51:04;1.60;;;1.50;;
2458;SDS011;1241;50.920;6.936;2022-10-15T14:53:47;2.40;;;1.47;;
2458;SDS011;1241;50.920;6.936;2022-10-15T14:58:46;1.20;;;1.10;;
2458;SDS011;1241;50.920;6.936;2022-10-15T15:01:17;1.63;;;1.53;;
2458;SDS011;1241;50.920;6.936;2022-10-15T15:03:46;1.40;;;1.30;;
2458;SDS011;1241;50.920;6.936;2022-10-15T15:06:14;1.47;;;1.37;;
2458;SDS011;1241;50.920;6.936;2022-10-15T15:08:40;1.70;;;1.60;;
2458;SDS011;1241;50.920;6.936;2022-10-15T15:11:08;1.47;;;1.37;;
2458;SDS011;1241;50.920;6.936;2022-10-15T15:13:37;1.97;;;1.77;;
2458;SDS011;1241;50.920;6.936;2022-10-15T15:16:08;1.30;;;1.20;;
2458;SDS011;1241;50.920;6.936;2022-10-15T15:18:37;1.63;;;1.40;;
2458;SDS011;1241;50.920;6.936;2022-10-15T15:21:05;1.13;;;0.93;;
2458;SDS011;1241;50.920;6.936;2022-10-15T15:23:34;1.50;;;1.27;;
2458;SDS011;1241;50.920;6.936;2022-10-15T15:26:00;2.43;;;1.00;;
2458;SDS011;1241;50.920;6.936;2022-10-15T15:28:27;1.43;;;1.10;;
2458;SDS011;1241;50.920;6.936;2022-10-15T15:30:57;2.77;;;1.20;;
2458;SDS011;1241;50.920;6.936;2022-10-15T15:33:23;1.57;;;1.43;;
2458;SDS011;1241;50.920;6.936;2022-10-15T15:38:25;5.50;;;2.43;;
2458;SDS011;1241;50.920;6.936;2022-10-15T15:43:43;2.67;;;1.83;;
2458;SDS011;1241;50.920;6.936;2022-10-15T15:46:10;3.20;;;2.70;;
2458;SDS011;1241;50.920;6.936;2022-10-15T15:48:36;3.83;;;2.23;;
2458;SDS011;1241;50.920;6.936;2022-10-15T15:51:03;2.43;;;2.10;;
2458;SDS011;1241;50.920;6.936;2022-10-15T15:53:49;3.37;;;2.90;;
2458;SDS011;1241;50.920;6.936;2022-10-15T15:56:15;4.50;;;4.07;;
2458;SDS011;1241;50.920;6.936;2022-10-15T15:58:41;6.00;;;3.63;;
2458;SDS011;1241;50.920;6.936;2022-10-15T16:01:07;3.90;;;3.60;;
2458;SDS011;1241;50.920;6.936;2022-10-15T16:03:33;6.57;;;3.93;;
2458;SDS011;1241;50.920;6.936;2022-10-15T16:05:58;4.47;;;3.53;;
2458;SDS011;1241;50.920;6.936;2022-10-15T16:08:24;2.97;;;2.67;;
2458;SDS011;1241;50.920;6.936;2022-10-15T16:10:50;3.50;;;2.87;;
2458;SDS011;1241;50.920;6.936;2022-10-15T16:13:15;2.60;;;2.40;;
2458;SDS011;1241;50.920;6.936;2022-10-15T16:15:41;3.80;;;2.20;;
2458;SDS011;1241;50.920;6.936;2022-10-15T16:18:07;3.80;;;2.20;;
2458;SDS011;1241;50.920;6.936;2022-10-15T16:20:33;4.80;;;2.47;;
2458;SDS011;1241;50.920;6.936;2022-10-15T16:23:03;3.30;;;2.50;;
2458;SDS011;1241;50.920;6.936;2022-10-15T16:25:29;3.80;;;3.37;;
2458;SDS011;1241;50.920;6.936;2022-10-15T16:27:54;6.40;;;4.67;;
2458;SDS011;1241;50.920;6.936;2022-10-15T16:30:21;4.97;;;4.00;;
2458;SDS011;1241;50.920;6.936;2022-10-15T16:32:47;7.80;;;4.90;;
2458;SDS011;1241;50.920;6.936;2022-10-15T16:35:12;5.63;;;4.10;;
2458;SDS011;1241;50.920;6.936;2022-10-15T16:37:38;2.40;;;2.20;;
2458;SDS011;1241;50.920;6.936;2022-10-15T16:40:04;2.77;;;2.57;;
2458;SDS011;1241;50.920;6.936;2022-10-15T16:42:30;3.20;;;2.90;;
2458;SDS011;1241;50.920;6.936;2022-10-15T16:44:56;3.40;;;2.40;;
2458;SDS011;1241;50.920;6.936;2022-10-15T16:47:21;2.53;;;2.40;;
2458;SDS011;1241;50.920;6.936;2022-10-15T16:49:47;4.37;;;2.20;;
2458;SDS011;1241;50.920;6.936;2022-10-15T16:52:13;3.40;;;3.10;;
2458;SDS011;1241;50.920;6.936;2022-10-15T16:54:38;2.00;;;1.80;;
2458;SDS011;1241;50.920;6.936;2022-10-15T16:57:04;4.93;;;3.60;;
2458;SDS011;1241;50.920;6.936;2022-10-15T16:59:30;5.47;;;2.37;;
2458;SDS011;1241;50.920;6.936;2022-10-15T17:01:56;3.50;;;2.67;;
2458;SDS011;1241;50.920;6.936;2022-10-15T17:04:22;4.70;;;3.80;;
2458;SDS011;1241;50.920;6.936;2022-10-15T17:06:48;3.40;;;3.10;;
2458;SDS011;1241;50.920;6.936;2022-10-15T17:09:14;5.80;;;4.60;;
2458;SDS011;1241;50.920;6.936;2022-10-15T17:11:40;3.40;;;2.70;;
2458;SDS011;1241;50.920;6.936;2022-10-15T17:14:08;2.10;;;2.00;;
2458;SDS011;1241;50.920;6.936;2022-10-15T17:16:37;2.50;;;2.30;;
2458;SDS011;1241;50.920;6.936;2022-10-15T17:19:04;4.17;;;2.77;;
2458;SDS011;1241;50.920;6.936;2022-10-15T17:21:31;2.43;;;2.20;;
2458;SDS011;1241;50.920;6.936;2022-10-15T17:23:58;7.00;;;3.87;;
2458;SDS011;1241;50.920;6.936;2022-10-15T17:26:29;4.03;;;3.50;;
2458;SDS011;1241;50.920;6.936;2022-10-15T17:29:06;10.87;;;7.23;;
2458;SDS011;1241;50.920;6.936;2022-10-15T17:31:34;7.13;;;5.00;;
2458;SDS011;1241;50.920;6.936;2022-10-15T17:34:02;5.83;;;3.80;;
2458;SDS011;1241;50.920;6.936;2022-10-15T17:36:34;3.90;;;3.50;;
2458;SDS011;1241;50.920;6.936;2022-10-15T17:39:08;6.13;;;3.63;;
2458;SDS011;1241;50.920;6.936;2022-10-15T17:41:34;4.77;;;4.27;;
2458;SDS011;1241;50.920;6.936;2022-10-15T17:44:01;4.67;;;3.17;;
2458;SDS011;1241;50.920;6.936;2022-10-15T17:46:27;12.07;;;10.93;;
2458;SDS011;1241;50.920;6.936;2022-10-15T17:48:54;7.10;;;6.43;;
2458;SDS011;1241;50.920;6.936;2022-10-15T17:51:25;10.33;;;7.50;;
2458;SDS011;1241;50.920;6.936;2022-10-15T17:53:57;10.43;;;9.37;;
2458;SDS011;1241;50.920;6.936;2022-10-15T17:56:27;9.60;;;5.63;;
2458;SDS011;1241;50.920;6.936;2022-10-15T17:58:58;7.47;;;6.87;;
2458;SDS011;1241;50.920;6.936;2022-10-15T18:01:26;7.13;;;4.93;;
2458;SDS011;1241;50.920;6.936;2022-10-15T18:03:54;4.17;;;3.77;;
2458;SDS011;1241;50.920;6.936;2022-10-15T18:06:23;8.87;;;8.07;;
2458;SDS011;1241;50.920;6.936;2022-10-15T18:08:50;9.60;;;3.80;;
2458;SDS011;1241;50.920;6.936;2022-10-15T18:11:17;11.13;;;10.17;;
2458;SDS011;1241;50.920;6.936;2022-10-15T18:13:45;6.40;;;5.00;;
2458;SDS011;1241;50.920;6.936;2022-10-15T18:16:10;8.03;;;7.33;;
2458;SDS011;1241;50.920;6.936;2022-10-15T18:18:36;12.30;;;11.20;;
2458;SDS011;1241;50.920;6.936;2022-10-15T18:21:06;12.40;;;11.17;;
2458;SDS011;1241;50.920;6.936;2022-10-15T18:23:36;8.27;;;7.53;;
2458;SDS011;1241;50.920;6.936;2022-10-15T18:26:07;5.53;;;4.03;;